createdAt,value
2022-08-19T00:01:40.897Z,101072.00
2022-08-19T00:04:10.839Z,101065.31
2022-08-19T00:06:38.700Z,101054.88
2022-08-19T00:09:07.369Z,101048.78
2022-08-19T00:11:35.471Z,101043.59
2022-08-19T00:14:02.005Z,101042.00
2022-08-19T00:16:28.426Z,101034.59
2022-08-19T00:18:56.365Z,101046.13
2022-08-19T00:21:25.614Z,101053.16
2022-08-19T00:23:52.470Z,101048.78
2022-08-19T00:26:19.323Z,101055.97
2022-08-19T00:28:45.812Z,101049.66
2022-08-19T00:31:12.341Z,101052.31
2022-08-19T00:33:38.950Z,101054.88
2022-08-19T00:36:08.022Z,101053.78
2022-08-19T00:38:37.575Z,101045.06
2022-08-19T00:41:06.379Z,101046.97
2022-08-19T00:43:33.045Z,101046.88
2022-08-19T00:46:00.301Z,101043.34
2022-08-19T00:48:27.389Z,101035.31
2022-08-19T00:50:55.176Z,101039.59
2022-08-19T00:53:25.101Z,101043.09
2022-08-19T00:55:55.148Z,101035.22
2022-08-19T00:58:25.535Z,101032.06
2022-08-19T01:00:52.176Z,101029.50
2022-08-19T01:03:21.294Z,101030.69
2022-08-19T01:05:49.765Z,101029.63
2022-08-19T01:08:18.249Z,101027.94
2022-08-19T01:10:49.247Z,101027.31
2022-08-19T01:13:17.004Z,101036.88
2022-08-19T01:15:49.936Z,101033.50
2022-08-19T01:18:18.171Z,101019.56
2022-08-19T01:20:45.468Z,101030.34
2022-08-19T01:23:13.060Z,101025.03
2022-08-19T01:25:45.041Z,101027.78
2022-08-19T01:28:33.874Z,101020.75
2022-08-19T01:31:01.068Z,101022.34
2022-08-19T01:33:35.294Z,101024.03
2022-08-19T01:36:23.301Z,101027.56
2022-08-19T01:38:50.392Z,101014.81
2022-08-19T01:41:18.473Z,101013.84
2022-08-19T01:44:10.291Z,101017.34
2022-08-19T01:46:33.060Z,101010.94
2022-08-19T01:48:59.732Z,101009.25
2022-08-19T01:51:27.157Z,101004.84
2022-08-19T01:53:55.642Z,101005.81
2022-08-19T01:56:22.088Z,100994.44
2022-08-19T01:58:58.488Z,100993.56
2022-08-19T02:01:25.302Z,101001.59
2022-08-19T02:03:57.762Z,100995.53
2022-08-19T02:06:26.844Z,100997.44
2022-08-19T02:08:53.638Z,101002.78
2022-08-19T02:11:27.616Z,101004.59
2022-08-19T02:13:55.471Z,101001.22
2022-08-19T02:16:22.441Z,100995.28
2022-08-19T02:18:49.569Z,100989.31
2022-08-19T02:21:17.627Z,100971.59
2022-08-19T02:23:44.570Z,100969.06
2022-08-19T02:26:11.643Z,100959.09
2022-08-19T02:28:38.341Z,100962.03
2022-08-19T02:31:10.386Z,100970.03
2022-08-19T02:33:37.008Z,100984.34
2022-08-19T02:36:08.175Z,100989.53
2022-08-19T02:38:35.567Z,100989.03
2022-08-19T02:41:05.504Z,100996.06
2022-08-19T02:43:37.384Z,100986.13
2022-08-19T02:46:29.670Z,100987.47
2022-08-19T02:48:59.300Z,100980.19
2022-08-19T02:51:29.039Z,100982.00
2022-08-19T02:53:56.045Z,100981.03
2022-08-19T02:56:22.621Z,100982.59
2022-08-19T02:58:49.358Z,100987.72
2022-08-19T03:01:33.310Z,100986.13
2022-08-19T03:04:01.965Z,100988.69
2022-08-19T03:06:28.935Z,100983.47
2022-08-19T03:08:56.289Z,100987.22
2022-08-19T03:11:30.176Z,100989.25
2022-08-19T03:13:56.914Z,100989.25
2022-08-19T03:16:27.242Z,100979.78
2022-08-19T03:18:54.897Z,100984.13
2022-08-19T03:21:24.831Z,100984.81
2022-08-19T03:23:54.496Z,100980.50
2022-08-19T03:26:21.196Z,100983.16
2022-08-19T03:28:51.129Z,100988.41
2022-08-19T03:31:44.084Z,100984.69
2022-08-19T03:34:18.533Z,100982.84
2022-08-19T03:36:45.745Z,100987.22
2022-08-19T03:39:12.259Z,100989.25
2022-08-19T03:41:45.178Z,100986.19
2022-08-19T03:44:23.032Z,100989.00
2022-08-19T03:46:56.142Z,100991.66
2022-08-19T03:49:27.222Z,100996.38
2022-08-19T03:51:57.343Z,101007.28
2022-08-19T03:54:26.375Z,101014.44
2022-08-19T03:56:55.133Z,101018.78
2022-08-19T03:59:26.798Z,101018.78
2022-08-19T04:01:58.686Z,101031.28
2022-08-19T04:04:29.228Z,101035.78
2022-08-19T04:06:56.993Z,101032.25
2022-08-19T04:09:23.385Z,101029.72
2022-08-19T04:11:56.213Z,101026.06
2022-08-19T04:14:26.028Z,101033.94
2022-08-19T04:16:53.630Z,101033.94
2022-08-19T04:19:20.823Z,101041.22
2022-08-19T04:21:49.780Z,101037.72
2022-08-19T04:24:16.931Z,101043.97
2022-08-19T04:26:43.952Z,101046.56
2022-08-19T04:29:16.647Z,101049.97
2022-08-19T04:31:45.999Z,101049.97
2022-08-19T04:34:16.032Z,101049.09
2022-08-19T04:36:45.415Z,101052.63
2022-08-19T04:39:16.888Z,101052.75
2022-08-19T04:42:02.875Z,101050.06
2022-08-19T04:44:35.171Z,101042.16
2022-08-19T04:47:10.858Z,101049.31
2022-08-19T04:49:38.376Z,101044.09
2022-08-19T04:52:04.889Z,101046.91
2022-08-19T04:54:38.336Z,101058.78
2022-08-19T04:57:10.553Z,101055.47
2022-08-19T04:59:39.350Z,101059.94
2022-08-19T05:02:07.555Z,101061.75
2022-08-19T05:04:34.512Z,101055.22
2022-08-19T05:07:02.123Z,101056.72
2022-08-19T05:09:55.430Z,101064.59
2022-08-19T05:12:16.485Z,101063.00
2022-08-19T05:14:42.942Z,101066.97
2022-08-19T05:17:26.459Z,101071.69
2022-08-19T05:20:13.385Z,101075.22
2022-08-19T05:22:40.116Z,101074.50
2022-08-19T05:25:13.185Z,101076.41
2022-08-19T05:27:41.304Z,101078.94
2022-08-19T05:30:08.451Z,101076.28
2022-08-19T05:32:34.968Z,101086.84
2022-08-19T05:35:01.675Z,101079.72
2022-08-19T05:37:28.448Z,101077.16
2022-08-19T05:39:55.957Z,101078.09
2022-08-19T05:42:23.874Z,101084.41
2022-08-19T05:44:51.151Z,101080.03
2022-08-19T05:47:19.700Z,101076.63
2022-08-19T05:49:46.578Z,101065.00
2022-08-19T05:52:16.944Z,101066.94
2022-08-19T05:54:51.276Z,101074.41
2022-08-19T05:57:19.818Z,101069.19
2022-08-19T05:59:49.445Z,101061.94
2022-08-19T06:02:20.335Z,101071.00
2022-08-19T06:04:46.992Z,101074.66
2022-08-19T06:07:13.397Z,101068.34
2022-08-19T06:09:41.072Z,101070.16
2022-08-19T06:12:10.307Z,101067.63
2022-08-19T06:14:40.226Z,101072.59
2022-08-19T06:17:09.223Z,101075.91
2022-08-19T06:19:40.810Z,101071.06
2022-08-19T06:22:08.421Z,101072.44
2022-08-19T06:24:36.055Z,101073.28
2022-08-19T06:27:03.726Z,101080.56
2022-08-19T06:29:30.997Z,101075.22
2022-08-19T06:32:00.522Z,101076.78
2022-08-19T06:34:29.183Z,101078.03
2022-08-19T06:36:56.846Z,101069.81
2022-08-19T06:39:26.415Z,101065.31
2022-08-19T06:41:58.576Z,101066.28
2022-08-19T06:44:35.399Z,101060.00
2022-08-19T06:47:14.660Z,101056.47
2022-08-19T06:49:49.579Z,101050.94
2022-08-19T06:52:16.461Z,101054.56
2022-08-19T06:54:56.030Z,101069.47
2022-08-19T06:57:25.412Z,101071.06
2022-08-19T06:59:52.391Z,101056.13
2022-08-19T07:02:20.157Z,101066.16
2022-08-19T07:04:46.928Z,101069.72
2022-08-19T07:07:19.595Z,101071.50
2022-08-19T07:09:51.816Z,101077.59
2022-08-19T07:12:25.199Z,101073.97
2022-08-19T07:14:53.619Z,101067.66
2022-08-19T07:17:21.110Z,101068.50
2022-08-19T07:19:48.560Z,101067.41
2022-08-19T07:22:15.897Z,101072.53
2022-08-19T07:24:51.101Z,101063.56
2022-08-19T07:27:19.715Z,101067.69
2022-08-19T07:29:56.085Z,101075.69
2022-08-19T07:32:26.849Z,101078.91
2022-08-19T07:34:53.686Z,101075.41
2022-08-19T07:37:20.156Z,101082.69
2022-08-19T07:39:46.710Z,101097.28
2022-08-19T07:42:14.622Z,101099.94
2022-08-19T07:44:42.091Z,101098.25
2022-08-19T07:47:12.023Z,101103.72
2022-08-19T07:49:55.454Z,101100.91
2022-08-19T07:52:22.056Z,101100.06
2022-08-19T07:54:48.682Z,101105.63
2022-08-19T07:57:15.123Z,101113.50
2022-08-19T07:59:41.627Z,101110.84
2022-08-19T08:02:09.895Z,101118.84
2022-08-19T08:04:55.098Z,101118.84
2022-08-19T08:07:39.880Z,101127.63
2022-08-19T08:10:21.256Z,101131.97
2022-08-19T08:12:52.283Z,101137.44
2022-08-19T08:15:39.971Z,101133.69
2022-08-19T08:18:08.599Z,101124.69
2022-08-19T08:20:36.045Z,101128.09
2022-08-19T08:23:21.580Z,101123.16
2022-08-19T08:25:49.366Z,101133.38
2022-08-19T08:28:17.978Z,101141.25
2022-08-19T08:30:48.451Z,101137.75
2022-08-19T08:33:32.885Z,101144.25
2022-08-19T08:36:09.543Z,101142.94
2022-08-19T08:38:41.208Z,101150.69
2022-08-19T08:41:38.172Z,101133.59
2022-08-19T08:44:05.672Z,101140.41
2022-08-19T08:46:40.929Z,101150.25
2022-08-19T08:49:29.019Z,101149.50
2022-08-19T08:52:03.370Z,101142.09
2022-08-19T08:54:38.593Z,101146.59
2022-08-19T08:57:12.023Z,101145.88
2022-08-19T08:59:42.026Z,101150.34
2022-08-19T09:02:09.667Z,101153.03
2022-08-19T09:04:38.530Z,101158.38
2022-08-19T09:07:18.668Z,101151.22
2022-08-19T09:10:18.796Z,101147.56
2022-08-19T09:13:09.346Z,101144.25
2022-08-19T09:15:45.309Z,101159.91
2022-08-19T09:18:19.142Z,101150.22
2022-08-19T09:20:47.862Z,101155.53
2022-08-19T09:23:15.256Z,101158.31
2022-08-19T09:25:42.055Z,101151.16
2022-08-19T09:28:22.013Z,101149.69
2022-08-19T09:30:49.517Z,101150.88
2022-08-19T09:33:16.531Z,101157.53
2022-08-19T09:35:49.503Z,101155.00
2022-08-19T09:38:16.707Z,101149.88
2022-08-19T09:40:43.217Z,101141.66
2022-08-19T09:43:13.412Z,101150.25
2022-08-19T09:45:40.432Z,101147.59
2022-08-19T09:48:07.121Z,101147.72
2022-08-19T09:50:35.093Z,101146.63
2022-08-19T09:53:01.538Z,101145.66
2022-08-19T09:55:31.680Z,101146.41
2022-08-19T09:58:00.844Z,101154.06
2022-08-19T10:00:27.895Z,101141.56
2022-08-19T10:02:54.360Z,101143.91
2022-08-19T10:05:42.331Z,101140.41
2022-08-19T10:08:13.713Z,101147.84
2022-08-19T10:10:46.640Z,101144.31
2022-08-19T10:13:16.404Z,101149.28
2022-08-19T10:15:47.827Z,101146.53
2022-08-19T10:18:18.607Z,101153.56
2022-08-19T10:20:51.584Z,101155.03
2022-08-19T10:23:21.380Z,101154.44
2022-08-19T10:25:48.982Z,101152.88
2022-08-19T10:28:15.580Z,101153.78
2022-08-19T10:30:42.838Z,101149.56
2022-08-19T10:33:10.975Z,101149.91
2022-08-19T10:35:56.240Z,101165.47
2022-08-19T10:38:31.553Z,101147.25
2022-08-19T10:41:07.610Z,101149.53
2022-08-19T10:43:36.955Z,101149.31
2022-08-19T10:46:04.729Z,101150.28
2022-08-19T10:48:36.314Z,101147.84
2022-08-19T10:51:23.073Z,101152.72
2022-08-19T10:53:50.716Z,101149.28
2022-08-19T10:56:37.296Z,101147.00
2022-08-19T10:59:04.441Z,101158.88
2022-08-19T11:01:34.150Z,101150.28
2022-08-19T11:04:05.094Z,101153.28
2022-08-19T11:06:34.637Z,101142.59
2022-08-19T11:09:01.240Z,101140.91
2022-08-19T11:11:29.331Z,101140.78
2022-08-19T11:13:56.463Z,101148.06
2022-08-19T11:16:26.228Z,101143.69
2022-08-19T11:18:55.790Z,101147.22
2022-08-19T11:21:33.113Z,101148.19
2022-08-19T11:24:02.466Z,101147.22
2022-08-19T11:26:31.164Z,101152.31
2022-08-19T11:28:58.546Z,101151.13
2022-08-19T11:31:29.454Z,101156.84
2022-08-19T11:34:02.425Z,101150.28
2022-08-19T11:36:29.141Z,101151.97
2022-08-19T11:38:55.634Z,101141.78
2022-08-19T11:41:24.418Z,101126.47
2022-08-19T11:43:53.710Z,101139.34
2022-08-19T11:46:20.074Z,101138.50
2022-08-19T11:48:47.004Z,101138.50
2022-08-19T11:51:16.606Z,101130.59
2022-08-19T11:53:43.311Z,101128.41
2022-08-19T11:56:10.161Z,101130.47
2022-08-19T11:58:37.596Z,101131.09
2022-08-19T12:01:16.878Z,101137.38
2022-08-19T12:03:44.971Z,101129.31
2022-08-19T12:06:14.667Z,101129.63
2022-08-19T12:08:43.254Z,101130.47
2022-08-19T12:11:11.098Z,101132.78
2022-08-19T12:13:39.684Z,101139.53
2022-08-19T12:16:15.848Z,101139.88
2022-08-19T12:18:47.306Z,101132.84
2022-08-19T12:21:15.574Z,101130.03
2022-08-19T12:23:44.063Z,101130.66
2022-08-19T12:26:11.677Z,101125.63
2022-08-19T12:28:38.916Z,101125.59
2022-08-19T12:31:06.541Z,101130.78
2022-08-19T12:33:33.213Z,101132.69
2022-08-19T12:36:09.140Z,101120.97
2022-08-19T12:38:36.495Z,101127.69
2022-08-19T12:41:06.503Z,101114.69
2022-08-19T12:43:35.918Z,101117.72
2022-08-19T12:46:06.645Z,101115.78
2022-08-19T12:48:37.915Z,101117.88
2022-08-19T12:51:11.874Z,101121.06
2022-08-19T12:53:39.291Z,101111.41
2022-08-19T12:56:09.978Z,101114.25
2022-08-19T12:58:39.538Z,101115.78
2022-08-19T13:01:11.499Z,101117.81
2022-08-19T13:03:40.600Z,101112.88
2022-08-19T13:06:09.468Z,101117.56
2022-08-19T13:08:42.723Z,101110.44
2022-08-19T13:11:17.413Z,101110.78
2022-08-19T13:13:47.044Z,101106.69
2022-08-19T13:16:15.251Z,101105.19
2022-08-19T13:18:43.246Z,101097.81
2022-08-19T13:21:14.074Z,101101.44
2022-08-19T13:23:41.791Z,101099.72
2022-08-19T13:26:10.221Z,101096.03
2022-08-19T13:28:55.085Z,101105.66
2022-08-19T13:31:42.504Z,101110.72
2022-08-19T13:34:09.616Z,101104.38
2022-08-19T13:36:37.050Z,101100.25
2022-08-19T13:39:05.300Z,101092.91
2022-08-19T13:41:32.223Z,101089.63
2022-08-19T13:43:58.666Z,101088.31
2022-08-19T13:46:25.073Z,101091.25
2022-08-19T13:48:51.516Z,101086.78
2022-08-19T13:51:18.775Z,101090.00
2022-08-19T13:53:48.046Z,101089.16
2022-08-19T13:56:17.695Z,101095.50
2022-08-19T13:58:44.433Z,101089.56
2022-08-19T14:01:11.499Z,101098.59
2022-08-19T14:03:38.938Z,101095.19
2022-08-19T14:06:05.422Z,101100.28
2022-08-19T14:08:33.132Z,101102.13
2022-08-19T14:11:00.522Z,101104.38
2022-08-19T14:13:34.807Z,101091.31
2022-08-19T14:16:01.433Z,101078.88
2022-08-19T14:18:28.650Z,101085.44
2022-08-19T14:20:57.790Z,101083.19
2022-08-19T14:23:25.609Z,101087.38
2022-08-19T14:25:52.193Z,101086.91
2022-08-19T14:28:18.747Z,101089.00
2022-08-19T14:30:45.441Z,101090.00
2022-08-19T14:33:12.547Z,101091.22
2022-08-19T14:35:39.028Z,101087.25
2022-08-19T14:38:06.919Z,101094.81
2022-08-19T14:40:33.579Z,101095.19
2022-08-19T14:43:04.748Z,101091.81
2022-08-19T14:45:33.771Z,101097.03
2022-08-19T14:48:01.188Z,101095.19
2022-08-19T14:50:28.425Z,101097.88
2022-08-19T14:53:09.052Z,101095.47
2022-08-19T14:55:43.219Z,101099.00
2022-08-19T14:58:09.855Z,101097.16
2022-08-19T15:00:56.423Z,101101.41
2022-08-19T15:03:22.880Z,101103.84
2022-08-19T15:05:49.311Z,101106.13
2022-08-19T15:08:15.853Z,101105.47
2022-08-19T15:10:42.367Z,101106.66
2022-08-19T15:13:09.036Z,101111.47
2022-08-19T15:15:35.982Z,101118.25
2022-08-19T15:18:03.529Z,101113.38
2022-08-19T15:20:30.033Z,101119.44
2022-08-19T15:22:56.513Z,101116.50
2022-08-19T15:25:23.059Z,101119.06
2022-08-19T15:27:49.485Z,101115.66
2022-08-19T15:30:22.238Z,101120.28
2022-08-19T15:32:49.316Z,101116.75
2022-08-19T15:35:16.765Z,101116.75
2022-08-19T15:37:43.726Z,101120.28
2022-08-19T15:40:10.518Z,101120.41
2022-08-19T15:42:38.014Z,101118.41
2022-08-19T15:45:09.869Z,101123.63
2022-08-19T15:47:36.980Z,101117.69
2022-08-19T15:50:18.229Z,101119.25
2022-08-19T15:52:54.178Z,101109.56
2022-08-19T15:55:33.065Z,101121.41
2022-08-19T15:58:30.985Z,101121.03
2022-08-19T16:01:20.489Z,101121.06
2022-08-19T16:04:13.867Z,101123.41
2022-08-19T16:06:53.201Z,101112.34
2022-08-19T16:09:27.487Z,101109.00
2022-08-19T16:11:57.133Z,101121.16
2022-08-19T16:14:28.727Z,101113.81
2022-08-19T16:16:56.703Z,101110.84
2022-08-19T16:19:24.475Z,101116.06
2022-08-19T16:21:53.329Z,101112.69
2022-08-19T16:24:23.570Z,101117.75
2022-08-19T16:26:50.373Z,101106.84
2022-08-19T16:29:33.360Z,101096.09
2022-08-19T16:32:03.419Z,101103.38
2022-08-19T16:34:30.705Z,101103.69
2022-08-19T16:36:57.263Z,101107.31
2022-08-19T16:39:24.217Z,101097.38
2022-08-19T16:41:51.957Z,101106.91
2022-08-19T16:44:19.315Z,101106.59
2022-08-19T16:46:47.215Z,101114.03
2022-08-19T16:49:54.437Z,101116.38
2022-08-19T16:52:12.871Z,101112.53
2022-08-19T16:54:43.774Z,101113.13
2022-08-19T16:57:12.259Z,101116.19
2022-08-19T16:59:48.170Z,101104.19
2022-08-19T17:02:18.597Z,101110.50
2022-08-19T17:04:57.344Z,101113.56
2022-08-19T17:07:33.268Z,101108.22
2022-08-19T17:10:01.980Z,101109.56
2022-08-19T17:12:31.549Z,101115.31
2022-08-19T17:14:59.882Z,101107.78
2022-08-19T17:17:29.153Z,101103.41
2022-08-19T17:19:55.906Z,101109.03
2022-08-19T17:22:22.456Z,101112.19
2022-08-19T17:24:49.389Z,101110.63
2022-08-19T17:27:15.826Z,101112.69
2022-08-19T17:29:46.778Z,101118.31
2022-08-19T17:32:14.391Z,101111.97
2022-08-19T17:34:40.927Z,101115.75
2022-08-19T17:37:07.654Z,101116.84
2022-08-19T17:39:37.227Z,101124.16
2022-08-19T17:42:06.660Z,101127.06
2022-08-19T17:44:36.428Z,101126.47
2022-08-19T17:47:04.253Z,101129.50
2022-08-19T17:49:33.428Z,101122.53
2022-08-19T17:52:00.673Z,101123.78
2022-08-19T17:54:30.609Z,101122.22
2022-08-19T17:57:01.413Z,101116.97
2022-08-19T17:59:29.961Z,101112.97
2022-08-19T18:01:57.612Z,101115.03
2022-08-19T18:04:25.462Z,101116.13
2022-08-19T18:06:54.372Z,101108.25
2022-08-19T18:09:26.067Z,101107.53
2022-08-19T18:11:54.543Z,101104.94
2022-08-19T18:14:32.274Z,101101.69
2022-08-19T18:17:09.354Z,101109.97
2022-08-19T18:19:41.512Z,101111.03
2022-08-19T18:22:10.957Z,101108.59
2022-08-19T18:24:39.687Z,101100.84
2022-08-19T18:27:07.144Z,101103.88
2022-08-19T18:29:34.096Z,101108.63
2022-08-19T18:32:00.646Z,101106.16
2022-08-19T18:34:27.080Z,101109.09
2022-08-19T18:36:54.241Z,101103.38
2022-08-19T18:39:39.648Z,101106.41
2022-08-19T18:42:34.983Z,101096.91
2022-08-19T18:45:24.777Z,101107.00
2022-08-19T18:48:27.029Z,101101.25
2022-08-19T18:50:56.917Z,101095.41
2022-08-19T18:53:23.833Z,101103.81
2022-08-19T18:55:53.974Z,101097.84
2022-08-19T18:58:33.644Z,101099.06
2022-08-19T19:01:03.524Z,101089.44
2022-08-19T19:03:30.064Z,101098.53
2022-08-19T19:05:56.610Z,101093.53
2022-08-19T19:08:26.995Z,101092.94
2022-08-19T19:10:54.551Z,101094.16
2022-08-19T19:13:21.001Z,101099.84
2022-08-19T19:15:47.523Z,101109.91
2022-08-19T19:18:13.988Z,101118.25
2022-08-19T19:20:40.869Z,101119.44
2022-08-19T19:23:08.585Z,101118.81
2022-08-19T19:25:49.879Z,101122.66
2022-08-19T19:28:17.656Z,101124.56
2022-08-19T19:30:44.170Z,101129.28
2022-08-19T19:33:10.779Z,101130.38
2022-08-19T19:35:37.236Z,101125.38
2022-08-19T19:38:04.328Z,101137.13
2022-08-19T19:40:30.984Z,101135.53
2022-08-19T19:42:59.707Z,101133.09
2022-08-19T19:45:26.957Z,101137.81
2022-08-19T19:47:53.688Z,101134.50
2022-08-19T19:50:20.269Z,101130.25
2022-08-19T19:52:46.966Z,101136.69
2022-08-19T19:55:18.647Z,101128.03
2022-08-19T19:57:46.559Z,101137.97
2022-08-19T20:00:16.261Z,101138.19
2022-08-19T20:02:49.264Z,101139.25
2022-08-19T20:05:19.127Z,101142.16
2022-08-19T20:08:04.243Z,101149.41
2022-08-19T20:10:32.250Z,101154.94
2022-08-19T20:13:02.219Z,101151.66
2022-08-19T20:15:29.334Z,101158.94
2022-08-19T20:17:55.993Z,101170.63
2022-08-19T20:20:23.630Z,101174.28
2022-08-19T20:22:50.084Z,101171.84
2022-08-19T20:25:18.739Z,101181.00
2022-08-19T20:27:49.702Z,101181.09
2022-08-19T20:30:21.038Z,101183.03
2022-08-19T20:32:49.608Z,101198.28
2022-08-19T20:35:18.678Z,101209.13
2022-08-19T20:37:45.184Z,101207.53
2022-08-19T20:40:16.333Z,101209.44
2022-08-19T20:42:47.135Z,101203.28
2022-08-19T20:45:32.153Z,101206.97
2022-08-19T20:47:59.153Z,101203.47
2022-08-19T20:50:26.094Z,101201.03
2022-08-19T20:52:56.426Z,101200.28
2022-08-19T20:55:22.941Z,101197.69
2022-08-19T20:57:49.531Z,101191.63
2022-08-19T21:00:16.188Z,101191.88
2022-08-19T21:02:42.691Z,101201.66
2022-08-19T21:05:09.231Z,101198.28
2022-08-19T21:07:38.995Z,101197.38
2022-08-19T21:10:06.923Z,101194.84
2022-08-19T21:12:33.588Z,101194.09
2022-08-19T21:15:00.199Z,101194.94
2022-08-19T21:17:26.792Z,101197.72
2022-08-19T21:19:53.437Z,101196.88
2022-08-19T21:22:20.082Z,101196.03
2022-08-19T21:24:46.533Z,101191.66
2022-08-19T21:27:13.012Z,101195.28
2022-08-19T21:29:40.466Z,101190.03
2022-08-19T21:32:07.307Z,101196.31
2022-08-19T21:34:33.732Z,101199.94
2022-08-19T21:37:00.204Z,101208.03
2022-08-19T21:39:27.573Z,101194.84
2022-08-19T21:41:54.369Z,101194.00
2022-08-19T21:44:20.839Z,101194.09
2022-08-19T21:46:50.334Z,101187.91
2022-08-19T21:49:17.088Z,101196.84
2022-08-19T21:51:43.628Z,101196.97
2022-08-19T21:54:14.207Z,101189.94
2022-08-19T21:56:41.612Z,101186.41
2022-08-19T21:59:08.685Z,101184.72
2022-08-19T22:01:35.813Z,101185.69
2022-08-19T22:04:02.208Z,101185.78
2022-08-19T22:06:29.713Z,101183.19
2022-08-19T22:08:56.104Z,101176.06
2022-08-19T22:11:23.831Z,101172.56
2022-08-19T22:13:53.732Z,101173.63
2022-08-19T22:16:20.836Z,101174.59
2022-08-19T22:18:48.688Z,101173.84
2022-08-19T22:21:15.269Z,101185.22
2022-08-19T22:23:47.446Z,101191.41
2022-08-19T22:26:16.008Z,101193.44
2022-08-19T22:28:43.056Z,101203.53
2022-08-19T22:31:10.537Z,101205.66
2022-08-19T22:33:38.430Z,101208.41
2022-08-19T22:36:10.842Z,101213.63
2022-08-19T22:38:38.182Z,101208.19
2022-08-19T22:41:07.050Z,101206.41
2022-08-19T22:43:34.290Z,101206.31
2022-08-19T22:46:01.127Z,101202.78
2022-08-19T22:48:30.177Z,101208.97
2022-08-19T22:51:16.208Z,101202.78
2022-08-19T22:53:44.962Z,101200.97
2022-08-19T22:56:15.377Z,101199.28
2022-08-19T22:58:42.356Z,101205.66
2022-08-19T23:01:11.246Z,101200.53
2022-08-19T23:03:51.473Z,101207.78
2022-08-19T23:06:18.020Z,101205.22
2022-08-19T23:08:44.535Z,101208.75
2022-08-19T23:11:11.464Z,101201.50
2022-08-19T23:13:39.317Z,101196.19
2022-08-19T23:16:06.372Z,101193.50
2022-08-19T23:18:34.093Z,101196.06
2022-08-19T23:21:01.249Z,101204.06
2022-08-19T23:23:28.185Z,101195.22
2022-08-19T23:25:56.584Z,101201.38
2022-08-19T23:28:42.916Z,101195.84
2022-08-19T23:31:09.512Z,101189.50
2022-08-19T23:33:50.805Z,101197.38
2022-08-19T23:36:20.271Z,101186.59
2022-08-19T23:38:49.098Z,101190.00
2022-08-19T23:41:17.591Z,101181.16
2022-08-19T23:43:44.441Z,101184.69
2022-08-19T23:46:13.391Z,101186.38
2022-08-19T23:48:40.776Z,101180.97
2022-08-19T23:51:10.854Z,101182.56
2022-08-19T23:53:41.422Z,101177.13
2022-08-19T23:56:10.463Z,101179.69
2022-08-19T23:58:38.310Z,101176.19
